Time;durP1;ratioP1;P1;durP2;ratioP2;P2;SDS_P1;SDS_P2;PMS_P1;PMS_P2;Temp;Humidity;BMP_temperature;BMP_pressure;BME280_temperature;BME280_humidity;BME280_pressure;Samples;Min_cycle;Max_cycle;Signal;HPM_P1;HPM_P2
2021/09/17 00:02:18;;;;;;;;;;;18.80;89.70;;;;;;4302923;33;43420;-80
2021/09/17 00:04:54;;;;;;;;;;;18.90;89.80;;;;;;4289801;33;43014;-80
2021/09/17 00:07:27;;;;;;;;;;;18.80;89.70;;;;;;4303104;33;43930;-79
2021/09/17 00:09:57;;;;;;;;;;;18.80;89.70;;;;;;4302816;33;44713;-79
2021/09/17 00:12:30;;;;;;;;;;;18.80;89.70;;;;;;4290148;33;42445;-79
2021/09/17 00:14:58;;;;;;;;;;;18.80;89.70;;;;;;4303132;33;44751;-80
2021/09/17 00:17:25;;;;;;;;;;;18.70;89.60;;;;;;4301575;33;43039;-80
2021/09/17 00:19:53;;;;;;;;;;;18.80;89.70;;;;;;4289769;33;44131;-80
2021/09/17 00:22:20;;;;;;;;;;;18.70;89.70;;;;;;4289704;33;42733;-80
2021/09/17 00:24:53;;;;;;;;;;;18.70;89.80;;;;;;4302786;33;43349;-80
2021/09/17 00:27:20;;;;;;;;;;;18.70;89.70;;;;;;4302981;33;42702;-80
2021/09/17 00:29:50;;;;;;;;;;;18.70;89.70;;;;;;4302878;33;42550;-79
2021/09/17 00:32:17;;;;;;;;;;;18.70;89.70;;;;;;4302432;33;43498;-80
2021/09/17 00:34:44;;;;;;;;;;;18.70;89.80;;;;;;4302502;33;45921;-80
2021/09/17 00:37:17;;;;;;;;;;;18.70;89.90;;;;;;4290023;33;41956;-80
2021/09/17 00:39:50;;;;;;;;;;;18.70;89.90;;;;;;4302288;33;43544;-80
2021/09/17 00:42:19;;;;;;;;;;;18.60;89.80;;;;;;4302712;33;43096;-80
2021/09/17 00:44:47;;;;;;;;;;;18.70;89.90;;;;;;4303057;33;43092;-80
2021/09/17 00:47:16;;;;;;;;;;;18.60;89.90;;;;;;4302783;33;43539;-80
2021/09/17 00:49:47;;;;;;;;;;;18.60;90.00;;;;;;4289691;33;43342;-80
2021/09/17 00:52:20;;;;;;;;;;;18.60;90.00;;;;;;4302657;33;43494;-80
2021/09/17 00:54:50;;;;;;;;;;;18.60;90.00;;;;;;4289602;33;43859;-80
2021/09/17 00:57:23;;;;;;;;;;;18.60;90.00;;;;;;4289196;33;43885;-80
2021/09/17 00:59:50;;;;;;;;;;;18.60;90.00;;;;;;4302232;33;44108;-80
2021/09/17 01:02:28;;;;;;;;;;;18.60;90.00;;;;;;4289108;33;44127;-80
2021/09/17 01:04:58;;;;;;;;;;;18.60;90.00;;;;;;4289635;33;43913;-79
2021/09/17 01:07:31;;;;;;;;;;;18.60;90.00;;;;;;4289679;33;42733;-80
2021/09/17 01:09:59;;;;;;;;;;;18.60;90.00;;;;;;4288941;33;45055;-80
2021/09/17 01:12:26;;;;;;;;;;;18.50;90.00;;;;;;4302088;33;43666;-79
2021/09/17 01:14:53;;;;;;;;;;;18.50;90.00;;;;;;4301890;33;43340;-80
2021/09/17 01:17:33;;;;;;;;;;;18.50;90.10;;;;;;4303073;33;20020;-80
2021/09/17 01:20:04;;;;;;;;;;;18.50;90.10;;;;;;4288921;33;43690;-79
2021/09/17 01:22:34;;;;;;;;;;;18.50;90.10;;;;;;4302247;33;45906;-80
2021/09/17 01:25:04;;;;;;;;;;;18.50;90.10;;;;;;4289439;33;43858;-80
2021/09/17 01:27:32;;;;;;;;;;;18.50;90.10;;;;;;4302181;33;45883;-79
2021/09/17 01:30:03;;;;;;;;;;;18.50;90.10;;;;;;4301983;33;44073;-80
2021/09/17 01:32:33;;;;;;;;;;;18.50;90.10;;;;;;4289172;33;44176;-80
2021/09/17 01:35:00;;;;;;;;;;;18.50;90.10;;;;;;4302323;33;44251;-80
2021/09/17 01:37:30;;;;;;;;;;;18.50;90.10;;;;;;4288652;33;43062;-80
2021/09/17 01:39:57;;;;;;;;;;;18.40;90.20;;;;;;4301934;33;43363;-80
2021/09/17 01:42:25;;;;;;;;;;;18.40;90.20;;;;;;4301815;33;43922;-79
2021/09/17 01:44:54;;;;;;;;;;;18.40;90.20;;;;;;4301370;33;44400;-80
2021/09/17 01:47:21;;;;;;;;;;;18.40;90.20;;;;;;4301498;33;43082;-80
2021/09/17 01:49:49;;;;;;;;;;;18.40;90.20;;;;;;4288508;33;43826;-80
2021/09/17 01:52:16;;;;;;;;;;;18.40;90.20;;;;;;4288531;33;44271;-80
2021/09/17 01:54:46;;;;;;;;;;;18.40;90.20;;;;;;4300488;33;42710;-80
2021/09/17 01:57:15;;;;;;;;;;;18.40;90.20;;;;;;4301415;33;43312;-80
2021/09/17 01:59:42;;;;;;;;;;;18.40;90.20;;;;;;4288688;33;44101;-80
2021/09/17 02:02:15;;;;;;;;;;;18.40;90.20;;;;;;4300182;33;43478;-80
2021/09/17 02:04:51;;;;;;;;;;;18.40;90.20;;;;;;4300637;33;43933;-80
2021/09/17 02:07:23;;;;;;;;;;;18.30;90.20;;;;;;4288536;33;43269;-79
2021/09/17 02:09:50;;;;;;;;;;;18.30;90.20;;;;;;4301436;33;42761;-79
2021/09/17 02:12:21;;;;;;;;;;;18.30;90.20;;;;;;4301093;33;42967;-80
2021/09/17 02:14:50;;;;;;;;;;;18.30;90.20;;;;;;4301115;33;44231;-80
2021/09/17 02:17:18;;;;;;;;;;;18.20;90.20;;;;;;4301026;33;43884;-80
2021/09/17 02:19:47;;;;;;;;;;;18.20;90.20;;;;;;4300933;33;45900;-80
2021/09/17 02:22:14;;;;;;;;;;;18.20;90.20;;;;;;4288418;33;43731;-79
2021/09/17 02:24:41;;;;;;;;;;;18.20;90.20;;;;;;4301143;33;42137;-80
2021/09/17 02:27:09;;;;;;;;;;;18.20;90.30;;;;;;4301052;33;43039;-80
2021/09/17 02:29:39;;;;;;;;;;;18.20;90.30;;;;;;4288498;33;43911;-79
2021/09/17 02:32:09;;;;;;;;;;;18.10;90.20;;;;;;4300498;33;43134;-80
2021/09/17 02:34:41;;;;;;;;;;;18.10;90.20;;;;;;4301452;33;43298;-80
2021/09/17 02:37:14;;;;;;;;;;;18.10;90.30;;;;;;4301512;33;44769;-80
2021/09/17 02:39:44;;;;;;;;;;;18.10;90.30;;;;;;4299838;33;42466;-80
2021/09/17 02:42:13;;;;;;;;;;;18.10;90.30;;;;;;4300880;33;43558;-80
2021/09/17 02:44:40;;;;;;;;;;;18.10;90.20;;;;;;4288600;33;44321;-80
2021/09/17 02:47:10;;;;;;;;;;;18.10;90.20;;;;;;4288532;33;43478;-80
2021/09/17 02:49:37;;;;;;;;;;;18.10;90.20;;;;;;4301378;33;43902;-80
2021/09/17 02:52:05;;;;;;;;;;;18.10;90.20;;;;;;4301315;33;44208;-80
2021/09/17 02:54:37;;;;;;;;;;;18.00;90.20;;;;;;4287827;33;42632;-80
2021/09/17 02:57:07;;;;;;;;;;;18.00;90.10;;;;;;4301147;33;42237;-80
2021/09/17 02:59:40;;;;;;;;;;;18.00;90.10;;;;;;4301419;33;43895;-80
2021/09/17 03:02:08;;;;;;;;;;;18.00;90.10;;;;;;4288026;33;43590;-80
2021/09/17 03:04:38;;;;;;;;;;;17.90;90.10;;;;;;4301172;33;42866;-80
2021/09/17 03:07:08;;;;;;;;;;;17.90;90.10;;;;;;4300742;33;43408;-80
2021/09/17 03:09:35;;;;;;;;;;;17.90;90.10;;;;;;4299752;33;42700;-80
2021/09/17 03:12:05;;;;;;;;;;;17.90;90.10;;;;;;4300849;33;43328;-80
2021/09/17 03:14:37;;;;;;;;;;;17.90;90.20;;;;;;4299907;33;44000;-80
2021/09/17 03:17:04;;;;;;;;;;;17.90;90.20;;;;;;4288138;33;44412;-80
2021/09/17 03:19:38;;;;;;;;;;;17.80;90.10;;;;;;4288807;33;20003;-79
2021/09/17 03:22:05;;;;;;;;;;;17.80;90.20;;;;;;4290196;33;43175;-80
2021/09/17 03:24:35;;;;;;;;;;;17.80;90.20;;;;;;4303634;33;43003;-80
2021/09/17 03:27:02;;;;;;;;;;;17.80;90.20;;;;;;4302762;33;43911;-80
2021/09/17 03:29:29;;;;;;;;;;;17.80;90.20;;;;;;4303346;33;43048;-80
2021/09/17 03:31:59;;;;;;;;;;;17.80;90.20;;;;;;4290151;33;43879;-80
2021/09/17 03:34:29;;;;;;;;;;;17.80;90.30;;;;;;4291360;33;43246;-80
2021/09/17 03:37:05;;;;;;;;;;;17.80;90.30;;;;;;4302431;33;43472;-80
2021/09/17 03:39:32;;;;;;;;;;;17.70;90.30;;;;;;4290135;33;44176;-80
2021/09/17 03:41:59;;;;;;;;;;;17.70;90.30;;;;;;4303590;33;43860;-80
2021/09/17 03:44:26;;;;;;;;;;;17.70;90.30;;;;;;4303103;33;44195;-80
2021/09/17 03:46:53;;;;;;;;;;;17.70;90.40;;;;;;4303052;33;43891;-80
2021/09/17 03:49:24;;;;;;;;;;;17.70;90.40;;;;;;4290642;33;44215;-80
2021/09/17 03:51:56;;;;;;;;;;;17.70;90.40;;;;;;4303445;33;44050;-80
2021/09/17 03:54:27;;;;;;;;;;;17.70;90.40;;;;;;4302342;33;43221;-80
2021/09/17 03:56:59;;;;;;;;;;;17.70;90.50;;;;;;4290400;33;44180;-80
2021/09/17 03:59:29;;;;;;;;;;;17.70;90.50;;;;;;4303054;33;42953;-80
2021/09/17 04:02:00;;;;;;;;;;;17.60;90.50;;;;;;4302922;33;42428;-80
2021/09/17 04:04:28;;;;;;;;;;;17.60;90.50;;;;;;4289922;33;45027;-80
2021/09/17 04:07:03;;;;;;;;;;;17.70;90.50;;;;;;4303286;33;43487;-80
2021/09/17 04:09:36;;;;;;;;;;;17.70;90.50;;;;;;4303252;33;43875;-80
2021/09/17 04:12:03;;;;;;;;;;;17.70;90.50;;;;;;4289916;33;42631;-80
2021/09/17 04:14:35;;;;;;;;;;;17.60;90.50;;;;;;4289963;33;42707;-80
2021/09/17 04:17:05;;;;;;;;;;;17.60;90.50;;;;;;4302110;33;43859;-80
2021/09/17 04:19:36;;;;;;;;;;;17.60;90.60;;;;;;4290443;33;44272;-80
2021/09/17 04:22:11;;;;;;;;;;;17.60;90.50;;;;;;4301976;33;43323;-80
2021/09/17 04:24:41;;;;;;;;;;;17.60;90.60;;;;;;4290326;33;43246;-81
2021/09/17 04:27:09;;;;;;;;;;;17.60;90.60;;;;;;4302920;33;44136;-79
2021/09/17 04:29:36;;;;;;;;;;;17.60;90.50;;;;;;4303101;33;43066;-80
2021/09/17 04:32:12;;;;;;;;;;;17.60;90.50;;;;;;4302815;33;44003;-80
2021/09/17 04:34:39;;;;;;;;;;;17.50;90.50;;;;;;4289844;33;43068;-80
2021/09/17 04:37:09;;;;;;;;;;;17.60;90.60;;;;;;4302573;33;43852;-80
2021/09/17 04:39:36;;;;;;;;;;;17.50;90.60;;;;;;4302303;33;43481;-80
2021/09/17 04:42:08;;;;;;;;;;;17.50;90.50;;;;;;4302580;33;43276;-80
2021/09/17 04:44:39;;;;;;;;;;;17.50;90.60;;;;;;4302356;33;43030;-80
2021/09/17 04:47:06;;;;;;;;;;;17.50;90.60;;;;;;4302684;33;43831;-79
2021/09/17 04:49:36;;;;;;;;;;;17.50;90.60;;;;;;4289359;33;43000;-80
2021/09/17 04:52:06;;;;;;;;;;;17.50;90.70;;;;;;4302510;33;44843;-80
2021/09/17 04:54:33;;;;;;;;;;;17.50;90.70;;;;;;4301426;33;42657;-80
2021/09/17 04:57:01;;;;;;;;;;;17.40;90.70;;;;;;4302469;33;44184;-80
2021/09/17 04:59:37;;;;;;;;;;;17.50;90.70;;;;;;4289967;33;42974;-80
2021/09/17 05:02:05;;;;;;;;;;;17.40;90.70;;;;;;4301209;33;43974;-80
2021/09/17 05:04:43;;;;;;;;;;;17.40;90.70;;;;;;4289457;33;42994;-80
2021/09/17 05:07:11;;;;;;;;;;;17.40;90.70;;;;;;4301409;33;44109;-80
2021/09/17 05:09:41;;;;;;;;;;;17.40;90.70;;;;;;4289756;33;43571;-79
2021/09/17 05:12:12;;;;;;;;;;;17.40;90.80;;;;;;4302212;33;44205;-80
2021/09/17 05:14:39;;;;;;;;;;;17.40;90.80;;;;;;4301366;33;43916;-80
2021/09/17 05:17:08;;;;;;;;;;;17.40;90.80;;;;;;4302079;33;44530;-80
2021/09/17 05:19:38;;;;;;;;;;;17.40;90.80;;;;;;4301833;33;42485;-80
2021/09/17 05:22:06;;;;;;;;;;;17.40;90.90;;;;;;4301851;33;20061;-80
2021/09/17 05:24:41;;;;;;;;;;;17.30;91.20;;;;;;4301746;33;43406;-80
2021/09/17 05:27:14;;;;;;;;;;;17.30;90.90;;;;;;4301893;33;43678;-80
2021/09/17 05:29:44;;;;;;;;;;;17.30;90.90;;;;;;4289352;33;43368;-80
2021/09/17 05:32:12;;;;;;;;;;;17.30;90.90;;;;;;4302214;33;44780;-79
2021/09/17 05:34:42;;;;;;;;;;;17.30;91.00;;;;;;4300549;33;42793;-80
2021/09/17 05:37:14;;;;;;;;;;;17.30;90.90;;;;;;4302081;33;43675;-80
2021/09/17 05:39:44;;;;;;;;;;;17.30;91.00;;;;;;4289618;33;43012;-80
2021/09/17 05:42:11;;;;;;;;;;;17.30;91.00;;;;;;4302130;33;43945;-80
2021/09/17 05:44:47;;;;;;;;;;;17.30;91.00;;;;;;4301367;33;42704;-80
2021/09/17 05:47:19;;;;;;;;;;;17.30;91.00;;;;;;4289184;33;44032;-80
2021/09/17 05:49:52;;;;;;;;;;;17.20;91.00;;;;;;4301444;33;42924;-80
2021/09/17 05:52:22;;;;;;;;;;;17.30;91.10;;;;;;4302718;33;19998;-80
2021/09/17 05:54:52;;;;;;;;;;;17.20;91.00;;;;;;4301446;33;43789;-80
2021/09/17 05:57:19;;;;;;;;;;;17.20;91.00;;;;;;4288577;33;44007;-80
2021/09/17 05:59:51;;;;;;;;;;;17.30;91.10;;;;;;4301560;33;43478;-80
2021/09/17 06:02:21;;;;;;;;;;;17.20;91.00;;;;;;4288095;33;45078;-80
2021/09/17 06:04:54;;;;;;;;;;;17.30;91.10;;;;;;4300641;33;43800;-80
2021/09/17 06:07:24;;;;;;;;;;;17.20;91.10;;;;;;4288235;33;44961;-80
2021/09/17 06:09:53;;;;;;;;;;;17.20;91.50;;;;;;4301158;33;45598;-80
2021/09/17 06:12:21;;;;;;;;;;;17.20;91.20;;;;;;4301496;33;44268;-80
2021/09/17 06:14:56;;;;;;;;;;;17.20;91.20;;;;;;4288575;33;43491;-80
2021/09/17 06:17:26;;;;;;;;;;;17.20;91.20;;;;;;4301124;33;42909;-80
2021/09/17 06:20:01;;;;;;;;;;;17.20;91.20;;;;;;4301035;33;42621;-79
2021/09/17 06:22:31;;;;;;;;;;;17.20;91.20;;;;;;4289304;33;20033;-80
2021/09/17 06:25:04;;;;;;;;;;;17.20;91.30;;;;;;4288429;33;43470;-80
2021/09/17 06:27:37;;;;;;;;;;;17.10;91.20;;;;;;4288007;33;43273;-80
2021/09/17 06:30:08;;;;;;;;;;;17.20;91.30;;;;;;4288736;33;43522;-80
2021/09/17 06:32:38;;;;;;;;;;;17.10;91.30;;;;;;4288673;33;44075;-80
2021/09/17 06:35:07;;;;;;;;;;;17.20;91.40;;;;;;4301740;33;45574;-80
2021/09/17 06:37:40;;;;;;;;;;;17.10;91.40;;;;;;4300930;33;43519;-80
2021/09/17 06:40:08;;;;;;;;;;;17.10;91.50;;;;;;4288026;33;43530;-80
2021/09/17 06:42:44;;;;;;;;;;;17.00;91.50;;;;;;4301395;33;43369;-80
2021/09/17 06:45:16;;;;;;;;;;;17.00;91.50;;;;;;4301351;33;44617;-80
2021/09/17 06:47:53;;;;;;;;;;;17.00;91.60;;;;;;4301441;33;44277;-79
2021/09/17 06:50:22;;;;;;;;;;;17.00;91.70;;;;;;4301370;33;43309;-80
2021/09/17 06:52:53;;;;;;;;;;;17.00;91.70;;;;;;4302259;33;20077;-80
2021/09/17 06:55:29;;;;;;;;;;;16.90;91.70;;;;;;4289234;33;41915;-80
2021/09/17 06:58:00;;;;;;;;;;;17.00;91.80;;;;;;4304547;33;43188;-80
2021/09/17 07:00:28;;;;;;;;;;;16.90;91.80;;;;;;4290810;33;43508;-80
2021/09/17 07:03:02;;;;;;;;;;;16.90;91.90;;;;;;4303649;33;43263;-80
2021/09/17 07:05:30;;;;;;;;;;;16.90;92.00;;;;;;4291310;33;43209;-80
2021/09/17 07:08:06;;;;;;;;;;;16.90;92.00;;;;;;4304117;33;43871;-80
2021/09/17 07:10:43;;;;;;;;;;;16.90;92.00;;;;;;4304132;33;44884;-80
2021/09/17 07:13:16;;;;;;;;;;;16.90;92.10;;;;;;4304134;33;44245;-80
2021/09/17 07:15:52;;;;;;;;;;;16.90;92.20;;;;;;4291574;33;43901;-80
2021/09/17 07:18:22;;;;;;;;;;;16.90;92.20;;;;;;4304085;33;44023;-80
2021/09/17 07:20:54;;;;;;;;;;;16.80;92.20;;;;;;4303858;33;44111;-79
2021/09/17 07:23:24;;;;;;;;;;;16.80;92.30;;;;;;4291865;33;20104;-80
2021/09/17 07:25:54;;;;;;;;;;;16.90;92.30;;;;;;4303952;33;43021;-80
2021/09/17 07:28:26;;;;;;;;;;;16.80;92.30;;;;;;4303844;33;43057;-80
2021/09/17 07:31:00;;;;;;;;;;;16.80;92.40;;;;;;4290429;33;43906;-80
2021/09/17 07:33:32;;;;;;;;;;;16.90;92.40;;;;;;4290658;33;43484;-80
2021/09/17 07:36:03;;;;;;;;;;;16.80;92.40;;;;;;4290639;33;44092;-79
2021/09/17 07:38:35;;;;;;;;;;;16.80;92.40;;;;;;4290623;33;43791;-80
2021/09/17 07:41:08;;;;;;;;;;;16.80;92.50;;;;;;4290287;33;43252;-79
2021/09/17 07:43:41;;;;;;;;;;;16.80;92.50;;;;;;4302253;33;42345;-79
2021/09/17 07:46:09;;;;;;;;;;;16.80;92.60;;;;;;4303699;33;44289;-79
2021/09/17 07:48:41;;;;;;;;;;;16.80;92.60;;;;;;4303654;33;44807;-80
2021/09/17 07:51:08;;;;;;;;;;;16.90;92.60;;;;;;4303530;33;43400;-80
2021/09/17 07:53:47;;;;;;;;;;;16.90;92.70;;;;;;4303996;33;20002;-80
2021/09/17 07:56:19;;;;;;;;;;;16.90;92.60;;;;;;4303442;33;43025;-80
2021/09/17 07:58:46;;;;;;;;;;;16.90;92.70;;;;;;4301903;33;44627;-80
2021/09/17 08:01:13;;;;;;;;;;;16.90;92.70;;;;;;4302685;33;43321;-79
2021/09/17 08:03:41;;;;;;;;;;;16.90;92.70;;;;;;4290429;33;44189;-80
2021/09/17 08:06:13;;;;;;;;;;;16.90;92.70;;;;;;4302594;33;42752;-80
2021/09/17 08:08:45;;;;;;;;;;;16.90;92.70;;;;;;4302883;33;43477;-80
2021/09/17 08:11:14;;;;;;;;;;;16.90;92.80;;;;;;4303166;33;43306;-80
2021/09/17 08:13:45;;;;;;;;;;;17.00;92.80;;;;;;4303374;33;44690;-79
2021/09/17 08:16:12;;;;;;;;;;;17.00;92.80;;;;;;4303155;33;43865;-80
2021/09/17 08:18:39;;;;;;;;;;;17.00;92.80;;;;;;4289627;33;44329;-80
2021/09/17 08:21:06;;;;;;;;;;;17.00;92.90;;;;;;4303072;33;45024;-80
2021/09/17 08:23:33;;;;;;;;;;;17.00;92.90;;;;;;4303158;33;43522;-80
2021/09/17 08:26:06;;;;;;;;;;;17.00;92.90;;;;;;4301564;33;42827;-80
2021/09/17 08:28:39;;;;;;;;;;;17.10;93.00;;;;;;4302919;33;45075;-80
2021/09/17 08:31:12;;;;;;;;;;;17.10;93.00;;;;;;4290318;33;43487;-79
2021/09/17 08:33:41;;;;;;;;;;;17.10;93.00;;;;;;4289596;33;44326;-80
2021/09/17 08:36:09;;;;;;;;;;;17.20;93.00;;;;;;4289803;33;44235;-80
2021/09/17 08:38:39;;;;;;;;;;;17.20;93.00;;;;;;4302490;33;43058;-80
2021/09/17 08:41:10;;;;;;;;;;;17.20;93.00;;;;;;4289750;33;43366;-80
2021/09/17 08:43:46;;;;;;;;;;;17.20;93.00;;;;;;4289387;33;42858;-80
2021/09/17 08:46:13;;;;;;;;;;;17.20;93.00;;;;;;4302808;33;43963;-80
2021/09/17 08:48:49;;;;;;;;;;;17.30;93.00;;;;;;4301312;33;44186;-79
2021/09/17 08:51:17;;;;;;;;;;;17.30;93.00;;;;;;4302770;33;43194;-79
2021/09/17 08:53:44;;;;;;;;;;;17.30;93.00;;;;;;4302177;33;43206;-80
2021/09/17 08:56:21;;;;;;;;;;;17.30;93.00;;;;;;4302321;33;43538;-80
2021/09/17 08:58:48;;;;;;;;;;;17.30;93.10;;;;;;4302684;33;45811;-80
2021/09/17 09:01:28;;;;;;;;;;;17.40;93.10;;;;;;4302111;33;44166;-80
2021/09/17 09:03:58;;;;;;;;;;;17.40;93.10;;;;;;4302118;33;44190;-80
2021/09/17 09:06:25;;;;;;;;;;;17.40;93.10;;;;;;4302040;33;42617;-80
2021/09/17 09:09:01;;;;;;;;;;;17.40;93.10;;;;;;4289401;33;44356;-80
2021/09/17 09:11:32;;;;;;;;;;;17.50;93.10;;;;;;4289344;33;44520;-80
2021/09/17 09:13:59;;;;;;;;;;;17.50;93.10;;;;;;4289437;33;43325;-80
2021/09/17 09:16:26;;;;;;;;;;;17.50;93.10;;;;;;4302317;33;43911;-80
2021/09/17 09:18:56;;;;;;;;;;;17.50;93.10;;;;;;4301490;33;44607;-79
2021/09/17 09:21:28;;;;;;;;;;;17.50;93.10;;;;;;4301105;33;46035;-80
2021/09/17 09:24:27;;;;;;;;;;;17.50;93.10;;;;;;4301434;33;43246;-79
2021/09/17 09:27:11;;;;;;;;;;;17.50;93.10;;;;;;4272954;33;43680;-79
2021/09/17 09:29:39;;;;;;;;;;;17.60;93.20;;;;;;4301353;33;46159;-79
2021/09/17 09:32:06;;;;;;;;;;;17.60;93.20;;;;;;4302194;33;43499;-80
2021/09/17 09:34:52;;;;;;;;;;;17.60;93.20;;;;;;4301564;33;45322;-79
2021/09/17 09:37:29;;;;;;;;;;;17.60;93.20;;;;;;4301651;33;43732;-80
2021/09/17 09:39:57;;;;;;;;;;;17.60;93.20;;;;;;4289029;33;44213;-80
2021/09/17 09:42:48;;;;;;;;;;;17.70;93.20;;;;;;4300573;33;43928;-79
2021/09/17 09:45:18;;;;;;;;;;;17.70;93.20;;;;;;4301547;33;42478;-79
2021/09/17 09:47:50;;;;;;;;;;;17.70;93.20;;;;;;4301407;33;43813;-79
2021/09/17 09:50:21;;;;;;;;;;;17.70;93.30;;;;;;4288885;33;44235;-79
2021/09/17 09:52:52;;;;;;;;;;;17.80;93.30;;;;;;4289002;33;44128;-79
2021/09/17 09:55:19;;;;;;;;;;;17.80;93.30;;;;;;4301601;33;42573;-79
2021/09/17 09:57:47;;;;;;;;;;;17.80;93.30;;;;;;4301957;33;44801;-79
2021/09/17 10:00:14;;;;;;;;;;;17.80;93.30;;;;;;4288445;33;43997;-79
2021/09/17 10:02:43;;;;;;;;;;;17.90;93.20;;;;;;4300473;33;43124;-79
2021/09/17 10:05:15;;;;;;;;;;;17.90;93.30;;;;;;4288388;33;42939;-79
2021/09/17 10:07:43;;;;;;;;;;;17.90;93.30;;;;;;4301879;33;42664;-79
2021/09/17 10:10:12;;;;;;;;;;;17.90;93.20;;;;;;4288496;33;43202;-79
2021/09/17 10:12:39;;;;;;;;;;;18.00;93.30;;;;;;4301741;33;43486;-79
2021/09/17 10:15:08;;;;;;;;;;;18.00;93.20;;;;;;4288559;33;42611;-79
2021/09/17 10:17:38;;;;;;;;;;;18.00;93.30;;;;;;4301230;33;44309;-79
2021/09/17 10:20:08;;;;;;;;;;;18.10;93.70;;;;;;4301412;33;43674;-79
2021/09/17 10:22:45;;;;;;;;;;;18.10;93.30;;;;;;4288842;33;46102;-79
2021/09/17 10:25:16;;;;;;;;;;;18.10;93.20;;;;;;4301543;33;43275;-79
2021/09/17 10:27:48;;;;;;;;;;;18.10;93.10;;;;;;4288504;33;42918;-80
2021/09/17 10:30:16;;;;;;;;;;;18.10;93.10;;;;;;4300836;33;43180;-79
2021/09/17 10:32:46;;;;;;;;;;;18.10;93.10;;;;;;4301256;33;43098;-79
2021/09/17 10:35:16;;;;;;;;;;;18.20;93.10;;;;;;4287980;33;43686;-79
2021/09/17 10:37:49;;;;;;;;;;;18.20;93.10;;;;;;4288619;33;43896;-78
2021/09/17 10:40:17;;;;;;;;;;;18.20;93.10;;;;;;4288458;33;44347;-78
2021/09/17 10:43:02;;;;;;;;;;;18.30;93.10;;;;;;4300858;33;42986;-79
2021/09/17 10:45:39;;;;;;;;;;;18.30;93.10;;;;;;4301337;33;43401;-79
2021/09/17 10:48:07;;;;;;;;;;;18.40;93.00;;;;;;4301228;33;44135;-79
2021/09/17 10:50:49;;;;;;;;;;;18.40;93.00;;;;;;4287991;33;42975;-79
2021/09/17 10:53:44;;;;;;;;;;;18.40;93.00;;;;;;4287931;33;43663;-79
2021/09/17 10:56:12;;;;;;;;;;;18.50;93.00;;;;;;4289435;33;43365;-78
2021/09/17 10:58:39;;;;;;;;;;;18.50;92.90;;;;;;4302158;33;20054;-79
2021/09/17 11:01:10;;;;;;;;;;;18.60;93.00;;;;;;4287777;33;43587;-79
2021/09/17 11:03:48;;;;;;;;;;;18.60;92.90;;;;;;4272540;33;44273;-78
2021/09/17 11:06:21;;;;;;;;;;;18.70;92.90;;;;;;4272860;33;43259;-78
2021/09/17 11:08:55;;;;;;;;;;;18.70;92.80;;;;;;4282838;33;44204;-78
2021/09/17 11:11:23;;;;;;;;;;;18.70;92.80;;;;;;4272588;33;43192;-78
2021/09/17 11:13:52;;;;;;;;;;;18.70;92.80;;;;;;4282661;33;43962;-78
2021/09/17 11:16:20;;;;;;;;;;;18.70;92.90;;;;;;4282718;33;45587;-78
2021/09/17 11:18:57;;;;;;;;;;;18.70;92.80;;;;;;4272036;33;44624;-78
2021/09/17 11:21:24;;;;;;;;;;;18.70;92.90;;;;;;4272501;33;43279;-77
2021/09/17 11:23:54;;;;;;;;;;;18.70;92.80;;;;;;4272205;33;43281;-78
2021/09/17 11:26:22;;;;;;;;;;;18.80;92.80;;;;;;4271863;33;43991;-78
2021/09/17 11:29:07;;;;;;;;;;;18.80;92.80;;;;;;4271981;33;20526;-79
2021/09/17 11:31:35;;;;;;;;;;;18.80;92.80;;;;;;4272423;33;46020;-78
2021/09/17 11:34:08;;;;;;;;;;;18.80;92.80;;;;;;4272173;33;43075;-78
2021/09/17 11:36:43;;;;;;;;;;;18.80;92.80;;;;;;4272317;33;43470;-78
2021/09/17 11:39:10;;;;;;;;;;;18.90;92.80;;;;;;4282574;33;43379;-78
2021/09/17 11:41:40;;;;;;;;;;;18.90;92.80;;;;;;4272306;33;43003;-78
2021/09/17 11:44:08;;;;;;;;;;;18.90;92.80;;;;;;4273873;33;43334;-78
2021/09/17 11:46:35;;;;;;;;;;;18.90;92.80;;;;;;4273719;33;45191;-78
2021/09/17 11:49:05;;;;;;;;;;;18.90;92.80;;;;;;4274622;33;43235;-78
2021/09/17 11:51:35;;;;;;;;;;;18.90;92.80;;;;;;4285117;33;42664;-78
2021/09/17 11:54:02;;;;;;;;;;;18.90;92.80;;;;;;4274824;33;42970;-78
2021/09/17 11:56:31;;;;;;;;;;;18.90;92.80;;;;;;4285166;33;43903;-78
2021/09/17 11:59:01;;;;;;;;;;;19.00;92.80;;;;;;4275589;33;20050;-78
2021/09/17 12:01:28;;;;;;;;;;;19.00;92.80;;;;;;4278374;33;44072;-78
2021/09/17 12:03:56;;;;;;;;;;;19.00;92.80;;;;;;4302872;33;42741;-78
2021/09/17 12:06:23;;;;;;;;;;;19.10;92.80;;;;;;4303040;33;42686;-78
2021/09/17 12:08:54;;;;;;;;;;;19.10;92.80;;;;;;4302917;33;44166;-78
2021/09/17 12:11:21;;;;;;;;;;;19.10;92.80;;;;;;4302055;33;42648;-78
2021/09/17 12:13:55;;;;;;;;;;;19.20;92.80;;;;;;4290308;33;44263;-78
2021/09/17 12:16:22;;;;;;;;;;;19.20;92.70;;;;;;4303310;33;43367;-78
2021/09/17 12:19:05;;;;;;;;;;;19.20;92.70;;;;;;4303058;33;45659;-79
2021/09/17 12:21:32;;;;;;;;;;;19.30;92.70;;;;;;4303323;33;43474;-78
2021/09/17 12:24:21;;;;;;;;;;;19.40;92.70;;;;;;4291134;33;43837;-78
2021/09/17 12:26:55;;;;;;;;;;;19.40;92.60;;;;;;4303156;33;43956;-78
2021/09/17 12:29:25;;;;;;;;;;;19.40;92.50;;;;;;4303969;33;20046;-78
2021/09/17 12:31:58;;;;;;;;;;;19.40;92.50;;;;;;4301751;33;44325;-78
2021/09/17 12:34:28;;;;;;;;;;;19.50;92.50;;;;;;4290137;33;43859;-78
2021/09/17 12:36:58;;;;;;;;;;;19.50;92.50;;;;;;4301868;33;43276;-78
2021/09/17 12:39:26;;;;;;;;;;;19.60;92.50;;;;;;4302369;33;43478;-78
2021/09/17 12:42:09;;;;;;;;;;;19.60;92.50;;;;;;4302438;33;43285;-78
2021/09/17 12:44:40;;;;;;;;;;;19.60;92.40;;;;;;4289959;33;43827;-78
2021/09/17 12:47:13;;;;;;;;;;;19.60;92.30;;;;;;4302975;33;43861;-78
2021/09/17 12:49:43;;;;;;;;;;;19.70;92.40;;;;;;4289756;33;45789;-78
2021/09/17 12:52:11;;;;;;;;;;;19.70;92.40;;;;;;4302646;33;43912;-78
2021/09/17 12:54:39;;;;;;;;;;;19.70;92.40;;;;;;4289782;33;43244;-77
2021/09/17 12:57:18;;;;;;;;;;;19.70;92.40;;;;;;4302936;33;44224;-78
2021/09/17 13:00:05;;;;;;;;;;;19.80;92.40;;;;;;4302634;33;44184;-78
2021/09/17 13:02:34;;;;;;;;;;;19.80;92.40;;;;;;4302026;33;44191;-78
2021/09/17 13:05:04;;;;;;;;;;;19.90;92.40;;;;;;4302097;33;43788;-78
2021/09/17 13:07:37;;;;;;;;;;;19.90;92.40;;;;;;4302202;33;43179;-78
2021/09/17 13:10:11;;;;;;;;;;;19.90;92.30;;;;;;4302605;33;43112;-78
2021/09/17 13:12:38;;;;;;;;;;;19.90;92.40;;;;;;4302311;33;45442;-78
2021/09/17 13:15:09;;;;;;;;;;;19.90;92.40;;;;;;4288992;33;42678;-78
2021/09/17 13:17:36;;;;;;;;;;;20.00;92.40;;;;;;4302522;33;43201;-78
2021/09/17 13:20:04;;;;;;;;;;;20.00;92.40;;;;;;4302065;33;43951;-78
2021/09/17 13:22:34;;;;;;;;;;;20.10;92.40;;;;;;4302465;33;44013;-78
2021/09/17 13:25:02;;;;;;;;;;;20.10;92.40;;;;;;4288826;33;43678;-78
2021/09/17 13:27:33;;;;;;;;;;;20.10;92.30;;;;;;4302144;33;42847;-79
2021/09/17 13:30:00;;;;;;;;;;;20.10;92.30;;;;;;4302628;33;20010;-78
2021/09/17 13:32:27;;;;;;;;;;;20.10;92.20;;;;;;4300660;33;43197;-78
2021/09/17 13:34:57;;;;;;;;;;;20.10;92.20;;;;;;4302228;33;43024;-78
2021/09/17 13:37:24;;;;;;;;;;;20.10;92.20;;;;;;4301620;33;43571;-78
2021/09/17 13:39:52;;;;;;;;;;;20.10;92.20;;;;;;4288496;33;44344;-77
2021/09/17 13:42:19;;;;;;;;;;;20.20;92.20;;;;;;4301502;33;42608;-78
2021/09/17 13:44:49;;;;;;;;;;;20.20;92.20;;;;;;4301030;33;43200;-78
2021/09/17 13:47:16;;;;;;;;;;;20.20;92.10;;;;;;4301588;33;43892;-78
2021/09/17 13:49:43;;;;;;;;;;;20.20;92.10;;;;;;4301945;33;44209;-78
2021/09/17 13:52:10;;;;;;;;;;;20.20;92.10;;;;;;4301656;33;45148;-78
2021/09/17 13:54:39;;;;;;;;;;;20.20;92.00;;;;;;4301755;33;44932;-78
2021/09/17 13:57:06;;;;;;;;;;;20.30;92.00;;;;;;4301244;33;44327;-78
2021/09/17 13:59:37;;;;;;;;;;;20.30;91.90;;;;;;4301352;33;43166;-78
2021/09/17 14:02:05;;;;;;;;;;;20.30;91.80;;;;;;4288249;33;43462;-78
2021/09/17 14:04:33;;;;;;;;;;;20.30;91.70;;;;;;4300926;33;43320;-78
2021/09/17 14:07:00;;;;;;;;;;;20.30;91.70;;;;;;4288669;33;42804;-78
2021/09/17 14:09:27;;;;;;;;;;;20.40;91.70;;;;;;4301733;33;43535;-78
2021/09/17 14:11:54;;;;;;;;;;;20.40;91.70;;;;;;4300182;33;43732;-78
2021/09/17 14:14:22;;;;;;;;;;;20.40;91.70;;;;;;4301389;33;44091;-78
2021/09/17 14:16:49;;;;;;;;;;;20.40;91.60;;;;;;4301084;33;44639;-78
2021/09/17 14:19:17;;;;;;;;;;;20.40;91.50;;;;;;4301589;33;44953;-78
2021/09/17 14:21:44;;;;;;;;;;;20.40;91.50;;;;;;4300036;33;44080;-78
2021/09/17 14:24:14;;;;;;;;;;;20.50;91.50;;;;;;4301415;33;43075;-77
2021/09/17 14:26:43;;;;;;;;;;;20.50;91.50;;;;;;4301047;33;43442;-78
2021/09/17 14:29:10;;;;;;;;;;;20.50;91.40;;;;;;4301604;33;43938;-78
2021/09/17 14:31:37;;;;;;;;;;;20.50;91.40;;;;;;4301413;33;44305;-78
2021/09/17 14:34:07;;;;;;;;;;;20.60;91.40;;;;;;4301400;33;43083;-78
2021/09/17 14:36:37;;;;;;;;;;;20.60;91.30;;;;;;4301420;33;42805;-78